sensor_id;sensor_type;location;lat;lon;timestamp;pressure;altitude;pressure_sealevel;temperature
71463;BMP180;59266;52.608;13.260;2023-02-28T00:01:09;102713.00;;;-0.70
71463;BMP180;59266;52.608;13.260;2023-02-28T00:03:36;102711.00;;;-0.70
71463;BMP180;59266;52.608;13.260;2023-02-28T00:06:04;102707.00;;;-0.80
71463;BMP180;59266;52.608;13.260;2023-02-28T00:08:31;102712.00;;;-0.80
71463;BMP180;59266;52.608;13.260;2023-02-28T00:11:05;102713.00;;;-0.80
71463;BMP180;59266;52.608;13.260;2023-02-28T00:13:37;102709.00;;;-0.80
71463;BMP180;59266;52.608;13.260;2023-02-28T00:16:06;102721.00;;;-0.90
71463;BMP180;59266;52.608;13.260;2023-02-28T00:18:33;102723.00;;;-1.00
71463;BMP180;59266;52.608;13.260;2023-02-28T00:20:59;102712.00;;;-1.00
71463;BMP180;59266;52.608;13.260;2023-02-28T00:23:27;102717.00;;;-1.00
71463;BMP180;59266;52.608;13.260;2023-02-28T00:25:54;102717.00;;;-1.00
71463;BMP180;59266;52.608;13.260;2023-02-28T00:28:21;102708.00;;;-1.10
71463;BMP180;59266;52.608;13.260;2023-02-28T00:30:48;102710.00;;;-1.20
71463;BMP180;59266;52.608;13.260;2023-02-28T00:33:15;102711.00;;;-1.20
71463;BMP180;59266;52.608;13.260;2023-02-28T00:35:42;102725.00;;;-1.20
71463;BMP180;59266;52.608;13.260;2023-02-28T00:38:11;102717.00;;;-1.40
71463;BMP180;59266;52.608;13.260;2023-02-28T00:40:38;102721.00;;;-1.40
71463;BMP180;59266;52.608;13.260;2023-02-28T00:43:05;102722.00;;;-1.40
71463;BMP180;59266;52.608;13.260;2023-02-28T00:45:31;102726.00;;;-1.50
71463;BMP180;59266;52.608;13.260;2023-02-28T00:47:58;102717.00;;;-1.50
71463;BMP180;59266;52.608;13.260;2023-02-28T00:50:25;102725.00;;;-1.60
71463;BMP180;59266;52.608;13.260;2023-02-28T00:52:52;102714.00;;;-1.60
71463;BMP180;59266;52.608;13.260;2023-02-28T00:55:18;102722.00;;;-1.60
71463;BMP180;59266;52.608;13.260;2023-02-28T00:57:45;102724.00;;;-1.70
71463;BMP180;59266;52.608;13.260;2023-02-28T01:00:14;102724.00;;;-1.80
71463;BMP180;59266;52.608;13.260;2023-02-28T01:02:41;102717.00;;;-1.90
71463;BMP180;59266;52.608;13.260;2023-02-28T01:05:08;102723.00;;;-1.90
71463;BMP180;59266;52.608;13.260;2023-02-28T01:07:34;102720.00;;;-1.90
71463;BMP180;59266;52.608;13.260;2023-02-28T01:10:01;102718.00;;;-1.90
71463;BMP180;59266;52.608;13.260;2023-02-28T01:12:28;102720.00;;;-2.00
71463;BMP180;59266;52.608;13.260;2023-02-28T01:14:56;102716.00;;;-2.10
71463;BMP180;59266;52.608;13.260;2023-02-28T01:17:23;102718.00;;;-2.00
71463;BMP180;59266;52.608;13.260;2023-02-28T01:19:53;102717.00;;;-2.00
71463;BMP180;59266;52.608;13.260;2023-02-28T01:22:20;102718.00;;;-2.00
71463;BMP180;59266;52.608;13.260;2023-02-28T01:24:46;102723.00;;;-2.10
71463;BMP180;59266;52.608;13.260;2023-02-28T01:27:14;102715.00;;;-2.10
71463;BMP180;59266;52.608;13.260;2023-02-28T01:29:40;102709.00;;;-2.10
71463;BMP180;59266;52.608;13.260;2023-02-28T01:32:19;102709.00;;;-2.30
71463;BMP180;59266;52.608;13.260;2023-02-28T01:34:46;102704.00;;;-2.20
71463;BMP180;59266;52.608;13.260;2023-02-28T01:37:12;102696.00;;;-2.30
71463;BMP180;59266;52.608;13.260;2023-02-28T01:39:39;102702.00;;;-2.30
71463;BMP180;59266;52.608;13.260;2023-02-28T01:42:05;102710.00;;;-2.30
71463;BMP180;59266;52.608;13.260;2023-02-28T01:47:26;102700.00;;;-2.40
71463;BMP180;59266;52.608;13.260;2023-02-28T01:49:55;102705.00;;;-2.40
71463;BMP180;59266;52.608;13.260;2023-02-28T01:52:22;102701.00;;;-2.40
71463;BMP180;59266;52.608;13.260;2023-02-28T01:54:55;102704.00;;;-2.40
71463;BMP180;59266;52.608;13.260;2023-02-28T01:57:27;102710.00;;;-2.50
71463;BMP180;59266;52.608;13.260;2023-02-28T02:00:03;102707.00;;;-2.50
71463;BMP180;59266;52.608;13.260;2023-02-28T02:02:31;102712.00;;;-2.50
71463;BMP180;59266;52.608;13.260;2023-02-28T02:05:16;102712.00;;;-2.60
71463;BMP180;59266;52.608;13.260;2023-02-28T02:07:44;102702.00;;;-2.70
71463;BMP180;59266;52.608;13.260;2023-02-28T02:13:00;102699.00;;;-2.80
71463;BMP180;59266;52.608;13.260;2023-02-28T02:15:38;102703.00;;;-2.80
71463;BMP180;59266;52.608;13.260;2023-02-28T02:18:30;102709.00;;;-2.80
71463;BMP180;59266;52.608;13.260;2023-02-28T02:21:24;102704.00;;;-2.90
71463;BMP180;59266;52.608;13.260;2023-02-28T02:24:22;102704.00;;;-3.00
71463;BMP180;59266;52.608;13.260;2023-02-28T02:32:54;102698.00;;;-3.10
71463;BMP180;59266;52.608;13.260;2023-02-28T02:35:37;102703.00;;;-3.10
71463;BMP180;59266;52.608;13.260;2023-02-28T02:43:49;102710.00;;;-3.20
71463;BMP180;59266;52.608;13.260;2023-02-28T02:46:33;102706.00;;;-3.30
71463;BMP180;59266;52.608;13.260;2023-02-28T02:49:04;102712.00;;;-3.30
71463;BMP180;59266;52.608;13.260;2023-02-28T02:51:32;102711.00;;;-3.30
71463;BMP180;59266;52.608;13.260;2023-02-28T02:54:11;102713.00;;;-3.30
71463;BMP180;59266;52.608;13.260;2023-02-28T02:56:45;102711.00;;;-3.40
71463;BMP180;59266;52.608;13.260;2023-02-28T02:59:20;102703.00;;;-3.30
71463;BMP180;59266;52.608;13.260;2023-02-28T03:01:51;102700.00;;;-3.40
71463;BMP180;59266;52.608;13.260;2023-02-28T03:04:21;102699.00;;;-3.50
71463;BMP180;59266;52.608;13.260;2023-02-28T03:06:50;102704.00;;;-3.50
71463;BMP180;59266;52.608;13.260;2023-02-28T03:09:25;102712.00;;;-3.50
71463;BMP180;59266;52.608;13.260;2023-02-28T03:11:55;102709.00;;;-3.60
71463;BMP180;59266;52.608;13.260;2023-02-28T03:17:16;102713.00;;;-3.70
71463;BMP180;59266;52.608;13.260;2023-02-28T03:20:39;102708.00;;;-3.70
71463;BMP180;59266;52.608;13.260;2023-02-28T03:22:50;102708.00;;;-3.70
71463;BMP180;59266;52.608;13.260;2023-02-28T03:28:15;102717.00;;;-3.70
71463;BMP180;59266;52.608;13.260;2023-02-28T03:33:17;102706.00;;;-3.80
71463;BMP180;59266;52.608;13.260;2023-02-28T03:36:02;102716.00;;;-3.90
71463;BMP180;59266;52.608;13.260;2023-02-28T03:38:49;102717.00;;;-3.90
71463;BMP180;59266;52.608;13.260;2023-02-28T03:41:22;102721.00;;;-4.00
71463;BMP180;59266;52.608;13.260;2023-02-28T03:44:05;102723.00;;;-4.00
71463;BMP180;59266;52.608;13.260;2023-02-28T03:46:37;102722.00;;;-3.90
71463;BMP180;59266;52.608;13.260;2023-02-28T03:49:14;102720.00;;;-4.00
71463;BMP180;59266;52.608;13.260;2023-02-28T03:51:42;102711.00;;;-4.00
71463;BMP180;59266;52.608;13.260;2023-02-28T03:54:14;102728.00;;;-4.00
71463;BMP180;59266;52.608;13.260;2023-02-28T03:56:53;102726.00;;;-4.00
71463;BMP180;59266;52.608;13.260;2023-02-28T03:59:32;102723.00;;;-4.00
71463;BMP180;59266;52.608;13.260;2023-02-28T04:02:00;102731.00;;;-4.10
71463;BMP180;59266;52.608;13.260;2023-02-28T04:04:27;102722.00;;;-4.10
71463;BMP180;59266;52.608;13.260;2023-02-28T04:07:02;102731.00;;;-4.20
71463;BMP180;59266;52.608;13.260;2023-02-28T04:09:28;102723.00;;;-4.20
71463;BMP180;59266;52.608;13.260;2023-02-28T04:11:55;102707.00;;;-4.10
71463;BMP180;59266;52.608;13.260;2023-02-28T04:14:23;102728.00;;;-4.20
71463;BMP180;59266;52.608;13.260;2023-02-28T04:16:51;102731.00;;;-4.30
71463;BMP180;59266;52.608;13.260;2023-02-28T04:19:21;102723.00;;;-4.30
71463;BMP180;59266;52.608;13.260;2023-02-28T04:21:50;102722.00;;;-4.30
71463;BMP180;59266;52.608;13.260;2023-02-28T04:24:26;102718.00;;;-4.30
71463;BMP180;59266;52.608;13.260;2023-02-28T04:26:55;102728.00;;;-4.40
71463;BMP180;59266;52.608;13.260;2023-02-28T04:29:27;102723.00;;;-4.40
71463;BMP180;59266;52.608;13.260;2023-02-28T04:31:54;102734.00;;;-4.40
71463;BMP180;59266;52.608;13.260;2023-02-28T04:34:26;102733.00;;;-4.40
71463;BMP180;59266;52.608;13.260;2023-02-28T04:36:53;102733.00;;;-4.40
71463;BMP180;59266;52.608;13.260;2023-02-28T04:39:37;102729.00;;;-4.40
71463;BMP180;59266;52.608;13.260;2023-02-28T04:42:07;102733.00;;;-4.40
71463;BMP180;59266;52.608;13.260;2023-02-28T04:44:34;102731.00;;;-4.50
71463;BMP180;59266;52.608;13.260;2023-02-28T04:47:00;102733.00;;;-4.40
71463;BMP180;59266;52.608;13.260;2023-02-28T04:49:27;102725.00;;;-4.50
71463;BMP180;59266;52.608;13.260;2023-02-28T04:51:54;102728.00;;;-4.60
71463;BMP180;59266;52.608;13.260;2023-02-28T04:54:24;102741.00;;;-4.60
71463;BMP180;59266;52.608;13.260;2023-02-28T04:56:52;102734.00;;;-4.60
71463;BMP180;59266;52.608;13.260;2023-02-28T04:59:19;102724.00;;;-4.60
71463;BMP180;59266;52.608;13.260;2023-02-28T05:01:47;102737.00;;;-4.70
71463;BMP180;59266;52.608;13.260;2023-02-28T05:04:14;102735.00;;;-4.70
71463;BMP180;59266;52.608;13.260;2023-02-28T05:06:41;102743.00;;;-4.70
71463;BMP180;59266;52.608;13.260;2023-02-28T05:09:08;102741.00;;;-4.70
71463;BMP180;59266;52.608;13.260;2023-02-28T05:11:34;102745.00;;;-4.70
71463;BMP180;59266;52.608;13.260;2023-02-28T05:14:20;102746.00;;;-4.80
71463;BMP180;59266;52.608;13.260;2023-02-28T05:16:46;102744.00;;;-4.80
71463;BMP180;59266;52.608;13.260;2023-02-28T05:19:16;102752.00;;;-4.80
71463;BMP180;59266;52.608;13.260;2023-02-28T05:21:53;102752.00;;;-4.90
71463;BMP180;59266;52.608;13.260;2023-02-28T05:24:20;102750.00;;;-4.90
71463;BMP180;59266;52.608;13.260;2023-02-28T05:26:51;102761.00;;;-4.90
71463;BMP180;59266;52.608;13.260;2023-02-28T05:29:19;102760.00;;;-5.00
71463;BMP180;59266;52.608;13.260;2023-02-28T05:31:46;102757.00;;;-5.00
71463;BMP180;59266;52.608;13.260;2023-02-28T05:34:13;102757.00;;;-5.00
71463;BMP180;59266;52.608;13.260;2023-02-28T05:36:43;102766.00;;;-5.00
71463;BMP180;59266;52.608;13.260;2023-02-28T05:39:09;102756.00;;;-5.00
71463;BMP180;59266;52.608;13.260;2023-02-28T05:41:41;102761.00;;;-5.00
71463;BMP180;59266;52.608;13.260;2023-02-28T05:44:08;102770.00;;;-5.00
71463;BMP180;59266;52.608;13.260;2023-02-28T05:46:35;102757.00;;;-5.10
71463;BMP180;59266;52.608;13.260;2023-02-28T05:49:01;102770.00;;;-4.90
71463;BMP180;59266;52.608;13.260;2023-02-28T05:51:28;102772.00;;;-5.00
71463;BMP180;59266;52.608;13.260;2023-02-28T05:53:59;102775.00;;;-5.00
71463;BMP180;59266;52.608;13.260;2023-02-28T05:56:27;102776.00;;;-5.10
71463;BMP180;59266;52.608;13.260;2023-02-28T05:58:53;102774.00;;;-5.10
71463;BMP180;59266;52.608;13.260;2023-02-28T06:01:25;102775.00;;;-5.10
71463;BMP180;59266;52.608;13.260;2023-02-28T06:03:53;102776.00;;;-5.10
71463;BMP180;59266;52.608;13.260;2023-02-28T06:06:19;102770.00;;;-5.10
71463;BMP180;59266;52.608;13.260;2023-02-28T06:08:49;102771.00;;;-5.10
71463;BMP180;59266;52.608;13.260;2023-02-28T06:11:32;102777.00;;;-5.10
71463;BMP180;59266;52.608;13.260;2023-02-28T06:14:00;102771.00;;;-5.10
71463;BMP180;59266;52.608;13.260;2023-02-28T06:16:28;102787.00;;;-5.10
71463;BMP180;59266;52.608;13.260;2023-02-28T06:19:00;102770.00;;;-5.10
71463;BMP180;59266;52.608;13.260;2023-02-28T06:21:31;102789.00;;;-5.10
71463;BMP180;59266;52.608;13.260;2023-02-28T06:23:58;102787.00;;;-5.00
71463;BMP180;59266;52.608;13.260;2023-02-28T06:26:25;102779.00;;;-5.00
71463;BMP180;59266;52.608;13.260;2023-02-28T06:28:51;102779.00;;;-5.00
71463;BMP180;59266;52.608;13.260;2023-02-28T06:31:18;102783.00;;;-4.90
71463;BMP180;59266;52.608;13.260;2023-02-28T06:33:46;102776.00;;;-5.00
71463;BMP180;59266;52.608;13.260;2023-02-28T06:36:14;102795.00;;;-4.90
71463;BMP180;59266;52.608;13.260;2023-02-28T06:38:44;102792.00;;;-4.90
71463;BMP180;59266;52.608;13.260;2023-02-28T06:41:11;102799.00;;;-4.80
71463;BMP180;59266;52.608;13.260;2023-02-28T06:43:40;102797.00;;;-4.80
71463;BMP180;59266;52.608;13.260;2023-02-28T06:46:08;102804.00;;;-4.70
71463;BMP180;59266;52.608;13.260;2023-02-28T06:48:36;102801.00;;;-4.60
71463;BMP180;59266;52.608;13.260;2023-02-28T06:51:05;102796.00;;;-4.60
71463;BMP180;59266;52.608;13.260;2023-02-28T06:53:33;102792.00;;;-4.60
71463;BMP180;59266;52.608;13.260;2023-02-28T06:55:59;102785.00;;;-4.40
71463;BMP180;59266;52.608;13.260;2023-02-28T06:58:36;102759.00;;;-3.90
71463;BMP180;59266;52.608;13.260;2023-02-28T07:01:03;102753.00;;;-3.30
71463;BMP180;59266;52.608;13.260;2023-02-28T07:03:31;102668.00;;;-2.40
71463;BMP180;59266;52.608;13.260;2023-02-28T07:05:59;102610.00;;;-0.40
71463;BMP180;59266;52.608;13.260;2023-02-28T07:08:26;102622.00;;;2.00
71463;BMP180;59266;52.608;13.260;2023-02-28T07:10:56;102573.00;;;3.80
71463;BMP180;59266;52.608;13.260;2023-02-28T07:13:23;102557.00;;;5.00
71463;BMP180;59266;52.608;13.260;2023-02-28T07:16:02;102555.00;;;7.40
71463;BMP180;59266;52.608;13.260;2023-02-28T07:18:29;102724.00;;;10.30
71463;BMP180;59266;52.608;13.260;2023-02-28T07:20:55;102780.00;;;11.90
71463;BMP180;59266;52.608;13.260;2023-02-28T07:23:23;102777.00;;;13.10
71463;BMP180;59266;52.608;13.260;2023-02-28T07:25:50;102785.00;;;13.80
71463;BMP180;59266;52.608;13.260;2023-02-28T07:28:17;102789.00;;;14.40
71463;BMP180;59266;52.608;13.260;2023-02-28T07:30:43;102789.00;;;15.90
71463;BMP180;59266;52.608;13.260;2023-02-28T07:33:13;102796.00;;;16.00
71463;BMP180;59266;52.608;13.260;2023-02-28T07:35:40;102795.00;;;16.90
71463;BMP180;59266;52.608;13.260;2023-02-28T07:38:07;102797.00;;;17.60
71463;BMP180;59266;52.608;13.260;2023-02-28T07:40:34;102799.00;;;18.10
71463;BMP180;59266;52.608;13.260;2023-02-28T07:43:02;102799.00;;;18.80
71463;BMP180;59266;52.608;13.260;2023-02-28T07:45:30;102805.00;;;19.40
71463;BMP180;59266;52.608;13.260;2023-02-28T07:47:57;102806.00;;;20.00
71463;BMP180;59266;52.608;13.260;2023-02-28T07:50:24;102801.00;;;20.80
71463;BMP180;59266;52.608;13.260;2023-02-28T07:52:53;102800.00;;;21.10
71463;BMP180;59266;52.608;13.260;2023-02-28T07:55:20;102808.00;;;21.40
71463;BMP180;59266;52.608;13.260;2023-02-28T07:57:46;102806.00;;;21.90
71463;BMP180;59266;52.608;13.260;2023-02-28T08:00:13;102810.00;;;22.20
71463;BMP180;59266;52.608;13.260;2023-02-28T08:02:41;102804.00;;;22.40
71463;BMP180;59266;52.608;13.260;2023-02-28T08:05:08;102810.00;;;22.70
71463;BMP180;59266;52.608;13.260;2023-02-28T08:07:35;102808.00;;;21.50
71463;BMP180;59266;52.608;13.260;2023-02-28T08:10:01;102807.00;;;23.10
71463;BMP180;59266;52.608;13.260;2023-02-28T08:12:28;102816.00;;;23.60
71463;BMP180;59266;52.608;13.260;2023-02-28T08:14:54;102815.00;;;23.30
71463;BMP180;59266;52.608;13.260;2023-02-28T08:17:21;102814.00;;;23.90
71463;BMP180;59266;52.608;13.260;2023-02-28T08:19:48;102814.00;;;22.60
71463;BMP180;59266;52.608;13.260;2023-02-28T08:22:15;102809.00;;;24.80
71463;BMP180;59266;52.608;13.260;2023-02-28T08:24:42;102805.00;;;24.40
71463;BMP180;59266;52.608;13.260;2023-02-28T08:27:12;102813.00;;;24.30
71463;BMP180;59266;52.608;13.260;2023-02-28T08:29:42;102813.00;;;26.10
71463;BMP180;59266;52.608;13.260;2023-02-28T08:32:08;102813.00;;;25.00
71463;BMP180;59266;52.608;13.260;2023-02-28T08:34:54;102819.00;;;25.30
71463;BMP180;59266;52.608;13.260;2023-02-28T08:37:20;102818.00;;;24.40
71463;BMP180;59266;52.608;13.260;2023-02-28T08:39:47;102821.00;;;26.00
71463;BMP180;59266;52.608;13.260;2023-02-28T08:42:21;102822.00;;;27.10
71463;BMP180;59266;52.608;13.260;2023-02-28T08:44:52;102824.00;;;25.20
71463;BMP180;59266;52.608;13.260;2023-02-28T08:47:19;102829.00;;;27.10
71463;BMP180;59266;52.608;13.260;2023-02-28T08:49:46;102841.00;;;25.00
71463;BMP180;59266;52.608;13.260;2023-02-28T08:52:12;102841.00;;;21.20
71463;BMP180;59266;52.608;13.260;2023-02-28T08:54:39;102842.00;;;17.80
71463;BMP180;59266;52.608;13.260;2023-02-28T08:57:06;102832.00;;;14.60
71463;BMP180;59266;52.608;13.260;2023-02-28T08:59:32;102836.00;;;12.50
71463;BMP180;59266;52.608;13.260;2023-02-28T09:01:59;102833.00;;;11.70
71463;BMP180;59266;52.608;13.260;2023-02-28T09:04:25;102836.00;;;11.60
71463;BMP180;59266;52.608;13.260;2023-02-28T09:06:52;102838.00;;;10.50
71463;BMP180;59266;52.608;13.260;2023-02-28T09:09:19;102840.00;;;10.70
71463;BMP180;59266;52.608;13.260;2023-02-28T09:12:00;102826.00;;;10.50
71463;BMP180;59266;52.608;13.260;2023-02-28T09:14:27;102836.00;;;10.10
71463;BMP180;59266;52.608;13.260;2023-02-28T09:16:53;102828.00;;;9.70
71463;BMP180;59266;52.608;13.260;2023-02-28T09:19:23;102824.00;;;9.00
71463;BMP180;59266;52.608;13.260;2023-02-28T09:21:49;102825.00;;;8.80
71463;BMP180;59266;52.608;13.260;2023-02-28T09:24:25;102828.00;;;7.90
71463;BMP180;59266;52.608;13.260;2023-02-28T09:26:51;102829.00;;;7.70
71463;BMP180;59266;52.608;13.260;2023-02-28T09:29:33;102826.00;;;7.60
71463;BMP180;59266;52.608;13.260;2023-02-28T09:32:00;102827.00;;;7.60
71463;BMP180;59266;52.608;13.260;2023-02-28T09:34:27;102820.00;;;7.80
71463;BMP180;59266;52.608;13.260;2023-02-28T09:36:54;102822.00;;;7.70
71463;BMP180;59266;52.608;13.260;2023-02-28T09:39:22;102831.00;;;7.10
71463;BMP180;59266;52.608;13.260;2023-02-28T09:41:52;102832.00;;;6.70
71463;BMP180;59266;52.608;13.260;2023-02-28T09:44:31;102829.00;;;6.80
71463;BMP180;59266;52.608;13.260;2023-02-28T09:47:18;102834.00;;;6.40
71463;BMP180;59266;52.608;13.260;2023-02-28T09:49:48;102831.00;;;6.30
71463;BMP180;59266;52.608;13.260;2023-02-28T09:52:19;102837.00;;;6.30
71463;BMP180;59266;52.608;13.260;2023-02-28T09:54:47;102831.00;;;6.30
71463;BMP180;59266;52.608;13.260;2023-02-28T09:57:33;102828.00;;;6.50
71463;BMP180;59266;52.608;13.260;2023-02-28T10:05:23;102807.00;;;9.20
71463;BMP180;59266;52.608;13.260;2023-02-28T10:08:09;102823.00;;;13.10
71463;BMP180;59266;52.608;13.260;2023-02-28T10:10:41;102819.00;;;15.40
71463;BMP180;59266;52.608;13.260;2023-02-28T10:13:27;102817.00;;;14.70
71463;BMP180;59266;52.608;13.260;2023-02-28T10:16:01;102825.00;;;17.90
71463;BMP180;59266;52.608;13.260;2023-02-28T10:18:38;102831.00;;;17.40
71463;BMP180;59266;52.608;13.260;2023-02-28T10:21:12;102824.00;;;17.90
71463;BMP180;59266;52.608;13.260;2023-02-28T10:23:41;102822.00;;;14.10
71463;BMP180;59266;52.608;13.260;2023-02-28T10:26:12;102825.00;;;15.50
71463;BMP180;59266;52.608;13.260;2023-02-28T10:28:40;102834.00;;;15.40
71463;BMP180;59266;52.608;13.260;2023-02-28T10:31:11;102834.00;;;17.00
71463;BMP180;59266;52.608;13.260;2023-02-28T10:33:41;102831.00;;;15.80
71463;BMP180;59266;52.608;13.260;2023-02-28T10:36:13;102821.00;;;16.10
71463;BMP180;59266;52.608;13.260;2023-02-28T10:38:40;102826.00;;;17.10
71463;BMP180;59266;52.608;13.260;2023-02-28T10:41:12;102826.00;;;18.90
71463;BMP180;59266;52.608;13.260;2023-02-28T10:43:40;102824.00;;;18.70
71463;BMP180;59266;52.608;13.260;2023-02-28T10:49:17;102830.00;;;22.00
71463;BMP180;59266;52.608;13.260;2023-02-28T10:51:47;102823.00;;;19.30
71463;BMP180;59266;52.608;13.260;2023-02-28T10:54:19;102816.00;;;20.20
71463;BMP180;59266;52.608;13.260;2023-02-28T10:56:45;102819.00;;;17.60
71463;BMP180;59266;52.608;13.260;2023-02-28T10:59:30;102817.00;;;18.00
71463;BMP180;59266;52.608;13.260;2023-02-28T11:01:58;102822.00;;;22.00
71463;BMP180;59266;52.608;13.260;2023-02-28T11:04:36;102817.00;;;22.70
71463;BMP180;59266;52.608;13.260;2023-02-28T11:07:16;102806.00;;;20.70
71463;BMP180;59266;52.608;13.260;2023-02-28T11:09:50;102815.00;;;19.10
71463;BMP180;59266;52.608;13.260;2023-02-28T11:12:37;102800.00;;;18.40
71463;BMP180;59266;52.608;13.260;2023-02-28T11:15:22;102797.00;;;18.50
71463;BMP180;59266;52.608;13.260;2023-02-28T11:17:56;102794.00;;;19.80
71463;BMP180;59266;52.608;13.260;2023-02-28T11:20:26;102797.00;;;18.70
71463;BMP180;59266;52.608;13.260;2023-02-28T11:22:55;102781.00;;;19.70
71463;BMP180;59266;52.608;13.260;2023-02-28T11:25:27;102791.00;;;22.20
71463;BMP180;59266;52.608;13.260;2023-02-28T11:27:59;102780.00;;;19.80
71463;BMP180;59266;52.608;13.260;2023-02-28T11:30:37;102781.00;;;19.30
71463;BMP180;59266;52.608;13.260;2023-02-28T11:33:42;102778.00;;;19.20
71463;BMP180;59266;52.608;13.260;2023-02-28T11:36:18;102769.00;;;17.40
71463;BMP180;59266;52.608;13.260;2023-02-28T11:38:48;102764.00;;;17.60
71463;BMP180;59266;52.608;13.260;2023-02-28T11:41:39;102769.00;;;16.40
71463;BMP180;59266;52.608;13.260;2023-02-28T11:58:51;102782.00;;;16.00
71463;BMP180;59266;52.608;13.260;2023-02-28T12:04:51;102770.00;;;15.30
71463;BMP180;59266;52.608;13.260;2023-02-28T12:07:31;102772.00;;;14.10
71463;BMP180;59266;52.608;13.260;2023-02-28T12:12:59;102771.00;;;13.40
71463;BMP180;59266;52.608;13.260;2023-02-28T12:18:49;102768.00;;;13.20
71463;BMP180;59266;52.608;13.260;2023-02-28T12:26:39;102753.00;;;14.40
71463;BMP180;59266;52.608;13.260;2023-02-28T12:29:17;102755.00;;;15.10
71463;BMP180;59266;52.608;13.260;2023-02-28T12:31:54;102751.00;;;15.20
71463;BMP180;59266;52.608;13.260;2023-02-28T12:34:27;102753.00;;;12.70
71463;BMP180;59266;52.608;13.260;2023-02-28T12:36:55;102742.00;;;13.00
71463;BMP180;59266;52.608;13.260;2023-02-28T12:39:27;102742.00;;;13.60
71463;BMP180;59266;52.608;13.260;2023-02-28T12:42:05;102731.00;;;12.60
71463;BMP180;59266;52.608;13.260;2023-02-28T12:44:39;102718.00;;;11.50
71463;BMP180;59266;52.608;13.260;2023-02-28T12:47:13;102728.00;;;12.20
71463;BMP180;59266;52.608;13.260;2023-02-28T12:50:12;102721.00;;;12.00
71463;BMP180;59266;52.608;13.260;2023-02-28T12:52:44;102720.00;;;12.10
71463;BMP180;59266;52.608;13.260;2023-02-28T12:55:38;102717.00;;;12.20
71463;BMP180;59266;52.608;13.260;2023-02-28T12:58:20;102710.00;;;11.80
71463;BMP180;59266;52.608;13.260;2023-02-28T13:01:04;102711.00;;;11.70
71463;BMP180;59266;52.608;13.260;2023-02-28T13:04:22;102696.00;;;11.30
71463;BMP180;59266;52.608;13.260;2023-02-28T13:09:33;102692.00;;;11.80
71463;BMP180;59266;52.608;13.260;2023-02-28T13:12:12;102696.00;;;11.60
71463;BMP180;59266;52.608;13.260;2023-02-28T13:14:40;102698.00;;;11.20
71463;BMP180;59266;52.608;13.260;2023-02-28T13:19:38;102695.00;;;11.20
71463;BMP180;59266;52.608;13.260;2023-02-28T13:22:16;102698.00;;;11.50
71463;BMP180;59266;52.608;13.260;2023-02-28T13:24:48;102702.00;;;12.20
71463;BMP180;59266;52.608;13.260;2023-02-28T13:29:43;102691.00;;;11.70
71463;BMP180;59266;52.608;13.260;2023-02-28T13:34:42;102683.00;;;11.20
71463;BMP180;59266;52.608;13.260;2023-02-28T13:39:50;102689.00;;;12.20
71463;BMP180;59266;52.608;13.260;2023-02-28T13:42:37;102684.00;;;12.40
71463;BMP180;59266;52.608;13.260;2023-02-28T13:47:44;102684.00;;;12.00
71463;BMP180;59266;52.608;13.260;2023-02-28T13:53:06;102683.00;;;12.80
71463;BMP180;59266;52.608;13.260;2023-02-28T13:56:03;102677.00;;;12.70
71463;BMP180;59266;52.608;13.260;2023-02-28T13:58:46;102679.00;;;12.10
71463;BMP180;59266;52.608;13.260;2023-02-28T14:01:31;102663.00;;;12.30
71463;BMP180;59266;52.608;13.260;2023-02-28T14:04:31;102662.00;;;11.20
71463;BMP180;59266;52.608;13.260;2023-02-28T14:07:05;102658.00;;;11.10
71463;BMP180;59266;52.608;13.260;2023-02-28T14:09:38;102668.00;;;12.10
71463;BMP180;59266;52.608;13.260;2023-02-28T14:20:48;102668.00;;;11.70
71463;BMP180;59266;52.608;13.260;2023-02-28T14:23:39;102674.00;;;12.30
71463;BMP180;59266;52.608;13.260;2023-02-28T14:32:18;102659.00;;;12.10
71463;BMP180;59266;52.608;13.260;2023-02-28T14:34:54;102666.00;;;12.20
71463;BMP180;59266;52.608;13.260;2023-02-28T14:37:32;102673.00;;;12.20
71463;BMP180;59266;52.608;13.260;2023-02-28T14:40:00;102667.00;;;12.20
71463;BMP180;59266;52.608;13.260;2023-02-28T14:42:33;102659.00;;;11.80
71463;BMP180;59266;52.608;13.260;2023-02-28T14:45:01;102659.00;;;11.90
71463;BMP180;59266;52.608;13.260;2023-02-28T14:47:31;102659.00;;;11.20
71463;BMP180;59266;52.608;13.260;2023-02-28T14:49:59;102657.00;;;11.60
71463;BMP180;59266;52.608;13.260;2023-02-28T14:52:28;102658.00;;;11.40
71463;BMP180;59266;52.608;13.260;2023-02-28T14:55:03;102661.00;;;11.90
71463;BMP180;59266;52.608;13.260;2023-02-28T14:57:32;102652.00;;;11.70
71463;BMP180;59266;52.608;13.260;2023-02-28T15:00:06;102647.00;;;11.00
71463;BMP180;59266;52.608;13.260;2023-02-28T15:02:38;102651.00;;;11.40
71463;BMP180;59266;52.608;13.260;2023-02-28T15:07:38;102646.00;;;11.00
71463;BMP180;59266;52.608;13.260;2023-02-28T15:10:21;102643.00;;;11.40
71463;BMP180;59266;52.608;13.260;2023-02-28T15:13:13;102647.00;;;11.10
71463;BMP180;59266;52.608;13.260;2023-02-28T15:16:03;102644.00;;;11.10
71463;BMP180;59266;52.608;13.260;2023-02-28T15:21:53;102648.00;;;11.10
71463;BMP180;59266;52.608;13.260;2023-02-28T15:24:34;102641.00;;;11.70
71463;BMP180;59266;52.608;13.260;2023-02-28T15:27:06;102643.00;;;10.80
71463;BMP180;59266;52.608;13.260;2023-02-28T15:29:43;102651.00;;;10.90
71463;BMP180;59266;52.608;13.260;2023-02-28T15:32:23;102646.00;;;10.80
71463;BMP180;59266;52.608;13.260;2023-02-28T15:34:50;102648.00;;;10.80
71463;BMP180;59266;52.608;13.260;2023-02-28T15:39:54;102638.00;;;9.80
71463;BMP180;59266;52.608;13.260;2023-02-28T15:42:28;102641.00;;;9.80
71463;BMP180;59266;52.608;13.260;2023-02-28T15:45:03;102650.00;;;9.80
71463;BMP180;59266;52.608;13.260;2023-02-28T15:47:31;102649.00;;;10.00
71463;BMP180;59266;52.608;13.260;2023-02-28T15:50:42;102653.00;;;9.80
71463;BMP180;59266;52.608;13.260;2023-02-28T15:53:35;102643.00;;;9.80
71463;BMP180;59266;52.608;13.260;2023-02-28T15:56:26;102656.00;;;9.40
71463;BMP180;59266;52.608;13.260;2023-02-28T15:58:56;102648.00;;;8.90